Time;durP1;ratioP1;P1;durP2;ratioP2;P2;SDS_P1;SDS_P2;PMS_P1;PMS_P2;Temp;Humidity;BMP_temperature;BMP_pressure;BME280_temperature;BME280_humidity;BME280_pressure;Samples;Min_cycle;Max_cycle;Signal;HPM_P1;HPM_P2
2021/08/04 00:01:57;;;;;;;1.80;1.70;;;;;;;17.19;90.77;96185.63;4974464;28;20194;-56
2021/08/04 00:04:22;;;;;;;3.10;2.37;;;;;;;17.19;90.55;96175.75;4974192;28;20198;-60
2021/08/04 00:06:48;;;;;;;2.53;2.27;;;;;;;17.31;90.01;96186.91;4974494;28;20198;-60
2021/08/04 00:09:13;;;;;;;2.80;2.30;;;;;;;17.22;90.47;96182.41;4974505;28;20201;-56
2021/08/04 00:11:39;;;;;;;3.33;2.57;;;;;;;17.29;89.91;96188.22;4974557;28;20534;-59
2021/08/04 00:14:04;;;;;;;1.80;1.70;;;;;;;17.26;90.25;96186.13;4976593;28;20196;-59
2021/08/04 00:16:30;;;;;;;2.93;2.43;;;;;;;17.32;89.82;96185.00;4979332;28;20675;-60
2021/08/04 00:18:56;;;;;;;2.23;2.03;;;;;;;17.27;89.86;96177.06;4974428;28;20174;-56
2021/08/04 00:21:21;;;;;;;2.30;2.10;;;;;;;17.31;89.66;96176.28;4974299;28;20220;-60
2021/08/04 00:23:47;;;;;;;3.80;1.83;;;;;;;17.32;88.99;96175.19;4973834;28;20413;-55
2021/08/04 00:26:13;;;;;;;3.03;2.17;;;;;;;17.34;88.82;96177.56;4974399;28;20210;-56
2021/08/04 00:28:38;;;;;;;2.33;2.13;;;;;;;17.17;89.81;96179.78;4974391;28;20273;-56
2021/08/04 00:31:03;;;;;;;2.07;1.97;;;;;;;17.31;89.32;96176.28;4982053;28;20182;-59
2021/08/04 00:33:29;;;;;;;2.10;2.00;;;;;;;17.36;88.96;96175.44;4973743;28;20170;-59
2021/08/04 00:35:54;;;;;;;2.03;1.93;;;;;;;17.34;88.95;96172.25;4974171;28;20186;-56
2021/08/04 00:38:20;;;;;;;1.90;1.80;;;;;;;17.34;88.77;96182.88;4974343;28;20170;-56
2021/08/04 00:40:47;;;;;;;2.60;2.40;;;;;;;17.07;89.33;96179.78;4974321;28;20249;-60
2021/08/04 00:43:12;;;;;;;2.40;2.20;;;;;;;17.21;88.97;96178.19;4974271;28;20457;-56
2021/08/04 00:45:38;;;;;;;2.10;2.00;;;;;;;17.24;88.21;96172.31;4976126;28;20880;-60
2021/08/04 00:48:04;;;;;;;3.33;1.97;;;;;;;17.12;88.47;96171.84;4993549;28;20182;-56
2021/08/04 00:50:30;;;;;;;2.13;2.03;;;;;;;16.94;88.67;96175.06;4993655;28;20182;-60
2021/08/04 00:52:56;;;;;;;2.53;2.00;;;;;;;17.19;88.21;96175.75;4993208;28;20867;-56
2021/08/04 00:55:23;;;;;;;3.70;2.20;;;;;;;17.16;87.44;96171.00;4993296;28;20478;-56
2021/08/04 00:57:48;;;;;;;2.47;2.27;;;;;;;17.18;87.16;96173.38;4993369;28;20173;-59
2021/08/04 01:00:14;;;;;;;2.13;1.93;;;;;;;17.25;86.87;96172.03;4988500;28;20915;-59
2021/08/04 01:02:43;;;;;;;2.10;2.00;;;;;;;17.14;86.88;96169.69;4976393;28;20202;-59
2021/08/04 01:05:14;;;;;;;1.97;1.87;;;;;;;17.08;86.76;96162.81;4977409;28;20201;-60
2021/08/04 01:07:58;;;;;;;2.47;1.90;;;;;;;17.07;86.74;96162.00;4977726;28;20927;-55
2021/08/04 01:10:31;;;;;;;1.80;1.70;;;;;;;17.14;86.66;96165.16;4977662;28;20483;-59
2021/08/04 01:13:06;;;;;;;3.10;2.30;;;;;;;17.01;86.73;96151.69;4977376;28;20448;-56
2021/08/04 01:15:38;;;;;;;2.17;1.70;;;;;;;16.98;86.76;96149.56;4978332;28;20835;-56
2021/08/04 01:18:05;;;;;;;2.13;2.03;;;;;;;17.07;85.60;96148.75;4977328;28;20922;-56
2021/08/04 01:20:31;;;;;;;1.97;1.87;;;;;;;17.14;85.76;96149.25;4977609;28;20891;-56
2021/08/04 01:23:09;;;;;;;2.63;2.17;;;;;;;17.16;85.24;96135.69;4977002;28;20457;-56
2021/08/04 01:25:42;;;;;;;2.10;1.90;;;;;;;17.24;85.04;96141.25;4977503;28;20656;-60
2021/08/04 01:28:17;;;;;;;2.00;1.90;;;;;;;17.24;84.79;96143.91;4977688;28;20489;-59
2021/08/04 01:30:45;;;;;;;2.10;2.00;;;;;;;17.32;84.38;96147.81;4989713;28;20454;-59
2021/08/04 01:33:12;;;;;;;2.00;1.80;;;;;;;17.27;84.40;96158.47;4979535;28;20804;-59
2021/08/04 01:35:38;;;;;;;2.23;2.10;;;;;;;17.23;84.48;96165.41;4977182;28;20497;-59
2021/08/04 01:38:04;;;;;;;2.10;1.90;;;;;;;17.10;84.41;96164.13;4977512;28;20409;-56
2021/08/04 01:40:31;;;;;;;2.90;2.60;;;;;;;17.15;84.51;96163.31;4977162;28;20648;-56
2021/08/04 01:42:58;;;;;;;2.73;2.53;;;;;;;17.16;84.11;96159.59;4976879;28;20990;-59
2021/08/04 01:45:23;;;;;;;2.13;2.03;;;;;;;17.22;84.06;96150.53;4976775;28;20812;-59
2021/08/04 01:47:49;;;;;;;2.83;2.30;;;;;;;17.21;83.20;96147.09;4986809;28;20414;-55
2021/08/04 01:50:14;;;;;;;2.90;2.00;;;;;;;17.31;83.31;96151.56;4977151;28;20225;-59
2021/08/04 01:52:40;;;;;;;3.60;1.97;;;;;;;17.24;83.13;96157.19;4976734;28;20692;-56
2021/08/04 01:55:07;;;;;;;2.50;1.93;;;;;;;17.22;83.23;96153.19;4976948;28;20545;-59
2021/08/04 01:57:33;;;;;;;2.40;2.20;;;;;;;17.29;83.07;96141.22;4977019;28;20201;-60
2021/08/04 01:59:58;;;;;;;2.60;1.90;;;;;;;17.14;83.42;96141.28;4983319;28;20899;-55
2021/08/04 02:02:24;;;;;;;2.30;1.97;;;;;;;17.19;83.31;96149.22;4996531;28;20203;-59
2021/08/04 02:04:51;;;;;;;2.17;2.00;;;;;;;17.21;82.81;96148.97;4995702;28;20200;-56
2021/08/04 02:07:39;;;;;;;2.07;1.70;;;;;;;17.30;82.62;96144.69;4996147;28;20621;-55
2021/08/04 02:10:08;;;;;;;1.77;1.67;;;;;;;17.09;82.35;96135.19;4996243;28;20473;-60
2021/08/04 02:12:41;;;;;;;2.00;1.90;;;;;;;17.19;82.84;96148.44;4995382;28;20411;-56
2021/08/04 02:15:11;;;;;;;2.90;2.60;;;;;;;17.08;83.09;96150.34;4985911;28;20437;-59
2021/08/04 02:17:39;;;;;;;2.43;1.80;;;;;;;17.00;83.00;96148.22;4976535;28;20417;-56
2021/08/04 02:20:17;;;;;;;2.17;1.97;;;;;;;17.05;83.31;96158.84;4976504;28;20418;-59
2021/08/04 02:22:42;;;;;;;2.80;1.93;;;;;;;17.08;83.12;96152.19;4975960;28;20460;-59
2021/08/04 02:25:13;;;;;;;1.90;1.80;;;;;;;17.05;83.25;96142.91;4976187;28;20484;-59
2021/08/04 02:27:39;;;;;;;2.13;1.90;;;;;;;16.81;84.23;96143.78;4976328;28;20177;-55
2021/08/04 02:30:07;;;;;;;4.73;2.17;;;;;;;16.80;84.22;96142.97;4987643;28;20425;-56
2021/08/04 02:32:34;;;;;;;2.40;2.20;;;;;;;16.90;83.97;96142.16;4995860;28;20474;-56
2021/08/04 02:35:00;;;;;;;3.33;1.90;;;;;;;16.79;84.17;96143.25;4995317;28;20522;-60
2021/08/04 02:37:25;;;;;;;2.53;2.33;;;;;;;16.79;84.22;96133.44;4995663;28;20507;-56
2021/08/04 02:39:51;;;;;;;2.23;2.03;;;;;;;16.98;83.53;96128.31;4994217;28;20264;-59
2021/08/04 02:42:17;;;;;;;2.63;2.03;;;;;;;17.11;82.72;96125.91;4995381;28;20205;-55
2021/08/04 02:44:43;;;;;;;3.03;2.20;;;;;;;17.18;82.52;96130.91;4983990;28;20445;-55
2021/08/04 02:47:09;;;;;;;2.27;2.07;;;;;;;17.14;82.78;96135.16;4975940;28;20837;-59
2021/08/04 02:49:35;;;;;;;2.93;1.97;;;;;;;17.14;82.48;96132.50;4976080;28;20173;-60
2021/08/04 02:52:02;;;;;;;3.70;2.13;;;;;;;16.99;83.19;96128.06;4975912;28;20421;-56
2021/08/04 02:54:27;;;;;;;2.70;2.50;;;;;;;17.03;83.01;96130.97;4975349;28;20441;-56
2021/08/04 02:56:53;;;;;;;2.07;1.97;;;;;;;17.16;82.63;96123.22;4976256;28;20412;-59
2021/08/04 02:59:18;;;;;;;2.60;2.20;;;;;;;17.13;82.70;96129.06;4983689;28;20178;-59
2021/08/04 03:01:43;;;;;;;2.20;2.00;;;;;;;17.12;82.47;96124.03;4975659;28;20234;-56
2021/08/04 03:04:09;;;;;;;3.83;2.27;;;;;;;17.26;82.21;96122.38;4975185;28;20278;-56
2021/08/04 03:06:35;;;;;;;3.27;2.30;;;;;;;17.16;82.32;96123.22;4975737;28;20177;-56
2021/08/04 03:09:00;;;;;;;2.03;1.93;;;;;;;17.15;82.34;96124.28;4975397;28;20209;-56
2021/08/04 03:11:25;;;;;;;2.63;2.43;;;;;;;17.09;82.56;96121.91;4975485;28;20178;-60
2021/08/04 03:13:51;;;;;;;2.60;2.40;;;;;;;17.07;82.10;96124.03;4975089;28;20178;-59
2021/08/04 03:16:16;;;;;;;2.27;2.07;;;;;;;17.13;82.27;96120.31;4994004;28;20177;-55
2021/08/04 03:18:42;;;;;;;4.77;2.20;;;;;;;17.18;82.06;96123.72;4993531;28;20186;-55
2021/08/04 03:21:07;;;;;;;3.83;2.30;;;;;;;17.16;82.18;96109.94;4994836;28;20177;-56
2021/08/04 03:23:32;;;;;;;2.40;2.20;;;;;;;17.10;82.04;96123.50;4994242;28;20244;-59
2021/08/04 03:25:58;;;;;;;2.30;2.10;;;;;;;17.13;82.02;96125.63;4994300;28;20243;-60
2021/08/04 03:28:23;;;;;;;1.80;1.70;;;;;;;17.14;82.29;96130.66;4993650;28;20170;-56
2021/08/04 03:30:48;;;;;;;1.90;1.80;;;;;;;17.14;81.88;96129.84;4991668;28;20604;-59
2021/08/04 03:33:14;;;;;;;4.47;2.20;;;;;;;17.10;82.45;96132.25;4993127;28;20212;-55
2021/08/04 03:35:39;;;;;;;1.80;1.70;;;;;;;17.20;82.00;96121.59;4994581;28;20193;-59
2021/08/04 03:38:05;;;;;;;2.40;2.20;;;;;;;17.15;81.74;96128.78;4994405;28;20170;-60
2021/08/04 03:40:30;;;;;;;2.10;2.00;;;;;;;17.21;81.63;96122.41;4993416;28;20169;-55
2021/08/04 03:42:55;;;;;;;2.17;2.07;;;;;;;17.19;81.58;96124.53;4974550;28;20202;-55
2021/08/04 03:45:21;;;;;;;1.90;1.80;;;;;;;17.27;80.92;96122.09;4975184;28;20201;-60
2021/08/04 03:47:46;;;;;;;2.40;1.80;;;;;;;17.25;81.10;96121.56;4982955;28;20181;-60
2021/08/04 03:50:12;;;;;;;2.57;2.07;;;;;;;17.35;81.10;96124.19;4994342;28;20184;-56
2021/08/04 03:52:41;;;;;;;2.77;2.57;;;;;;;17.21;81.41;96133.03;4993848;28;20170;-56
2021/08/04 03:55:07;;;;;;;3.00;1.90;;;;;;;17.26;81.40;96120.53;4993109;28;20209;-56
2021/08/04 03:57:33;;;;;;;2.17;2.03;;;;;;;17.21;81.21;96123.19;4994409;28;20412;-60
2021/08/04 03:59:58;;;;;;;2.40;1.93;;;;;;;17.26;81.46;96122.38;4994272;28;20208;-60
2021/08/04 04:02:23;;;;;;;2.33;2.00;;;;;;;17.36;81.15;96128.44;4993468;28;20202;-56
2021/08/04 04:04:49;;;;;;;2.80;2.20;;;;;;;17.40;81.12;96128.66;4993754;28;20193;-60
2021/08/04 04:07:16;;;;;;;2.80;2.60;;;;;;;17.48;80.35;96128.13;4994441;28;20204;-60
2021/08/04 04:09:41;;;;;;;2.80;2.10;;;;;;;17.54;80.24;96128.91;4993446;28;20180;-60
2021/08/04 04:12:07;;;;;;;2.40;2.20;;;;;;;17.55;80.29;96130.47;4982922;28;20445;-55
2021/08/04 04:14:33;;;;;;;2.50;2.30;;;;;;;17.59;80.04;96128.88;4974153;28;20679;-55
2021/08/04 04:16:58;;;;;;;2.40;2.20;;;;;;;17.73;79.21;96133.28;4974694;28;20445;-55
2021/08/04 04:19:23;;;;;;;3.00;2.10;;;;;;;17.77;78.96;96134.34;4974665;28;20688;-60
2021/08/04 04:21:49;;;;;;;2.47;2.27;;;;;;;17.63;79.49;96138.66;4974960;28;20292;-57
2021/08/04 04:24:14;;;;;;;3.37;2.20;;;;;;;17.46;80.17;96132.91;4993068;28;20212;-56
2021/08/04 04:26:39;;;;;;;5.70;2.40;;;;;;;17.59;79.92;96134.19;4993950;28;20204;-60
2021/08/04 04:29:05;;;;;;;4.40;2.40;;;;;;;17.72;79.87;96133.56;4994064;28;20185;-60
2021/08/04 04:31:30;;;;;;;2.40;2.20;;;;;;;17.74;79.67;96136.72;4994042;28;20642;-60
2021/08/04 04:33:56;;;;;;;2.03;1.93;;;;;;;17.84;79.83;96131.34;4993122;28;20205;-60
2021/08/04 04:36:21;;;;;;;3.27;2.40;;;;;;;17.89;79.99;96131.31;4994857;28;20241;-60
2021/08/04 04:38:47;;;;;;;2.20;2.00;;;;;;;17.99;80.07;96139.25;4994115;28;20264;-60
2021/08/04 04:41:12;;;;;;;2.43;2.23;;;;;;;18.04;79.97;96140.00;4997271;28;20185;-56
2021/08/04 04:43:40;;;;;;;2.50;2.20;;;;;;;18.05;80.44;96136.25;4996448;28;20200;-55
2021/08/04 04:46:06;;;;;;;2.73;2.53;;;;;;;18.09;80.27;96131.16;4997009;28;20185;-62
2021/08/04 04:48:31;;;;;;;2.90;2.07;;;;;;;18.03;80.70;96133.06;4997330;28;20439;-61
2021/08/04 04:50:57;;;;;;;5.03;2.47;;;;;;;18.02;80.61;96131.50;4996971;28;20231;-55
2021/08/04 04:53:22;;;;;;;2.00;1.90;;;;;;;18.06;80.04;96132.50;4996603;28;20162;-60
2021/08/04 04:55:48;;;;;;;3.07;2.17;;;;;;;18.11;79.39;96137.81;4997145;28;20333;-60
2021/08/04 04:58:13;;;;;;;2.30;2.10;;;;;;;18.13;79.11;96143.66;4995968;28;20220;-56
2021/08/04 05:00:38;;;;;;;3.77;2.77;;;;;;;18.15;79.17;96130.84;4990629;28;20213;-56
2021/08/04 05:03:04;;;;;;;2.43;2.23;;;;;;;18.20;78.95;96143.31;4979366;28;20201;-59
2021/08/04 05:05:29;;;;;;;4.03;2.10;;;;;;;18.23;78.36;96145.41;4996775;28;20204;-56
2021/08/04 05:07:54;;;;;;;2.40;2.20;;;;;;;18.21;77.91;96145.69;4997139;28;20175;-56
2021/08/04 05:10:20;;;;;;;4.23;2.43;;;;;;;18.19;77.95;96145.16;4997250;28;20200;-61
2021/08/04 05:12:45;;;;;;;2.37;2.17;;;;;;;18.17;78.64;96152.63;4996702;28;20176;-56
2021/08/04 05:15:12;;;;;;;2.30;2.10;;;;;;;18.19;79.04;96150.50;4996302;28;20202;-60
2021/08/04 05:17:37;;;;;;;3.27;2.50;;;;;;;18.26;78.97;96155.50;4996855;28;20205;-56
2021/08/04 05:20:05;;;;;;;2.40;2.20;;;;;;;18.32;78.45;96162.34;4996906;28;20424;-56
2021/08/04 05:22:30;;;;;;;2.80;2.60;;;;;;;18.16;78.72;96156.38;4995542;28;20197;-60
2021/08/04 05:24:55;;;;;;;2.70;2.50;;;;;;;18.10;78.85;96154.81;4996207;28;20478;-59
2021/08/04 05:27:21;;;;;;;3.00;2.30;;;;;;;18.26;78.32;96158.16;4996598;28;20189;-60
2021/08/04 05:29:46;;;;;;;2.53;2.33;;;;;;;18.21;78.44;96159.00;4993258;28;20162;-60
2021/08/04 05:32:11;;;;;;;2.10;1.90;;;;;;;18.24;78.30;96160.31;4985640;28;20173;-55
2021/08/04 05:34:37;;;;;;;5.00;2.63;;;;;;;18.38;77.77;96161.25;4996213;28;20225;-60
2021/08/04 05:37:03;;;;;;;3.80;2.43;;;;;;;18.40;77.50;96170.56;4997117;28;20168;-56
2021/08/04 05:39:28;;;;;;;3.43;2.50;;;;;;;18.48;77.35;96165.72;4996669;28;20412;-60
2021/08/04 05:41:54;;;;;;;3.50;2.10;;;;;;;18.50;77.62;96168.91;4996740;28;20332;-60
2021/08/04 05:44:19;;;;;;;4.13;2.27;;;;;;;18.50;77.85;96164.34;4994202;28;20193;-56
2021/08/04 05:46:44;;;;;;;2.47;2.20;;;;;;;18.45;78.67;96159.09;4984294;28;20334;-56
2021/08/04 05:49:10;;;;;;;2.23;2.07;;;;;;;18.49;78.39;96160.13;4996388;28;20204;-60
2021/08/04 05:51:35;;;;;;;2.57;2.37;;;;;;;18.57;77.91;96158.72;4996411;28;20230;-60
2021/08/04 05:54:00;;;;;;;3.20;2.30;;;;;;;18.56;78.54;96159.78;4995359;28;20593;-60
2021/08/04 05:56:26;;;;;;;2.40;2.10;;;;;;;18.48;78.77;96159.31;4996452;28;20177;-60
2021/08/04 05:58:51;;;;;;;2.33;2.13;;;;;;;18.52;77.50;96158.75;4996281;28;20222;-60
2021/08/04 06:01:16;;;;;;;2.60;2.40;;;;;;;18.39;77.11;96155.66;4995684;28;20217;-55
2021/08/04 06:03:42;;;;;;;2.17;1.97;;;;;;;18.37;77.00;96157.78;4995609;28;20258;-56
2021/08/04 06:06:09;;;;;;;2.33;2.07;;;;;;;18.35;77.73;96156.50;4995778;28;20185;-55
2021/08/04 06:08:35;;;;;;;1.90;1.80;;;;;;;18.44;78.09;96149.53;4995549;28;20576;-56
2021/08/04 06:11:00;;;;;;;2.60;2.07;;;;;;;18.48;78.56;96155.09;4996211;28;20520;-55
2021/08/04 06:13:25;;;;;;;2.80;2.40;;;;;;;18.54;78.92;96149.44;4995775;28;20181;-60
2021/08/04 06:15:53;;;;;;;2.77;2.57;;;;;;;18.56;78.82;96155.25;4995559;28;20209;-60
2021/08/04 06:18:18;;;;;;;2.33;2.20;;;;;;;18.61;77.71;96157.88;4996063;28;20224;-56
2021/08/04 06:20:44;;;;;;;2.70;2.40;;;;;;;18.60;77.67;96155.50;4995795;28;20409;-60
2021/08/04 06:23:10;;;;;;;2.60;2.40;;;;;;;18.57;78.08;96153.41;4985693;28;20208;-60
2021/08/04 06:25:35;;;;;;;3.20;2.83;;;;;;;18.65;78.51;96160.75;4976593;28;20429;-55
2021/08/04 06:28:01;;;;;;;2.60;2.40;;;;;;;18.64;79.04;96164.50;4978137;28;20174;-58
2021/08/04 06:30:26;;;;;;;4.00;2.10;;;;;;;18.67;78.74;96163.94;4995649;28;20273;-60
2021/08/04 06:32:51;;;;;;;2.37;2.17;;;;;;;18.50;77.23;96161.69;4995425;28;20655;-56
2021/08/04 06:35:17;;;;;;;3.77;2.70;;;;;;;18.48;77.59;96169.97;4995547;28;20185;-60
2021/08/04 06:37:42;;;;;;;4.37;2.77;;;;;;;18.44;77.81;96174.25;4987443;28;20538;-59
2021/08/04 06:40:08;;;;;;;2.43;2.20;;;;;;;18.48;77.89;96177.16;4976292;28;20201;-56
2021/08/04 06:42:33;;;;;;;2.20;2.10;;;;;;;18.30;77.66;96175.13;4976721;28;20194;-60
2021/08/04 06:44:59;;;;;;;2.90;2.53;;;;;;;18.37;77.80;96178.31;4994998;28;20428;-62
2021/08/04 06:47:25;;;;;;;2.60;2.40;;;;;;;18.48;77.72;96176.38;4993835;28;20280;-58
2021/08/04 06:49:50;;;;;;;2.30;2.13;;;;;;;18.51;77.11;96181.13;4994440;28;20174;-57
2021/08/04 06:52:16;;;;;;;1.80;1.70;;;;;;;18.62;76.66;96180.75;4987725;28;20433;-62
2021/08/04 06:54:41;;;;;;;2.50;2.30;;;;;;;18.68;76.26;96173.53;4979929;28;20220;-58
2021/08/04 06:57:06;;;;;;;2.63;2.20;;;;;;;18.73;76.87;96168.94;4993809;28;20177;-57
2021/08/04 06:59:32;;;;;;;3.60;2.17;;;;;;;18.78;76.65;96176.88;4993730;28;20173;-62
2021/08/04 07:02:01;;;;;;;2.10;2.00;;;;;;;18.84;76.51;96178.41;4994278;28;20204;-58
2021/08/04 07:04:26;;;;;;;2.43;2.23;;;;;;;18.82;76.64;96177.09;4993796;28;20189;-61
2021/08/04 07:06:56;;;;;;;2.30;2.10;;;;;;;18.77;75.96;96180.59;4990379;28;20452;-56
2021/08/04 07:09:22;;;;;;;2.07;1.97;;;;;;;18.78;74.98;96184.88;4990470;28;20543;-60
2021/08/04 07:11:47;;;;;;;1.97;1.87;;;;;;;18.77;73.12;96180.59;4994134;28;20413;-63
2021/08/04 07:14:12;;;;;;;3.63;1.77;;;;;;;18.59;72.26;96183.97;4993243;28;20252;-63
2021/08/04 07:16:38;;;;;;;4.33;2.40;;;;;;;18.74;71.90;96183.84;4979833;28;20261;-64
2021/08/04 07:19:03;;;;;;;2.60;2.03;;;;;;;18.78;73.28;96173.41;4974944;28;20180;-58
2021/08/04 07:21:29;;;;;;;2.93;2.30;;;;;;;18.86;72.75;96176.25;4974579;28;20174;-64
2021/08/04 07:23:54;;;;;;;4.00;2.77;;;;;;;18.84;72.61;96174.97;4987701;28;20213;-64
2021/08/04 07:26:20;;;;;;;2.50;2.30;;;;;;;18.90;73.60;96169.28;4994179;28;20182;-58
2021/08/04 07:28:45;;;;;;;2.13;1.93;;;;;;;18.94;73.38;96172.19;4994098;28;20177;-64
2021/08/04 07:31:11;;;;;;;2.07;1.90;;;;;;;19.00;74.10;96166.53;4992697;28;20181;-58
2021/08/04 07:33:36;;;;;;;2.23;2.00;;;;;;;19.15;74.60;96170.91;4990675;28;20497;-58
2021/08/04 07:36:02;;;;;;;2.80;2.10;;;;;;;19.25;73.80;96171.56;4976754;28;20282;-63
2021/08/04 07:38:27;;;;;;;2.27;2.17;;;;;;;19.34;75.60;96167.22;4993776;28;20173;-57
2021/08/04 07:40:53;;;;;;;2.40;2.20;;;;;;;19.45;74.83;96163.38;4992054;28;20173;-58
2021/08/04 07:43:18;;;;;;;2.40;2.20;;;;;;;19.56;74.93;96168.53;4989093;28;20278;-59
2021/08/04 07:45:44;;;;;;;2.37;2.17;;;;;;;19.72;74.93;96164.59;4939653;28;1462835;-62
2021/08/04 07:48:09;;;;;;;2.60;2.40;;;;;;;19.80;73.35;96166.63;4990581;28;20188;-62
2021/08/04 07:50:34;;;;;;;2.23;2.10;;;;;;;19.78;72.46;96161.59;4990726;28;20188;-62
2021/08/04 07:53:00;;;;;;;2.60;2.40;;;;;;;19.85;69.99;96164.69;4989757;28;20265;-58
2021/08/04 07:55:25;;;;;;;2.60;2.00;;;;;;;19.97;69.97;96164.22;4990738;28;20619;-63
2021/08/04 07:57:51;;;;;;;2.30;1.90;;;;;;;20.00;70.96;96153.00;4990171;28;20268;-62
2021/08/04 08:00:16;;;;;;;2.33;2.13;;;;;;;20.02;70.38;96154.28;4990797;28;20177;-61
2021/08/04 08:02:42;;;;;;;2.70;2.50;;;;;;;20.04;68.07;96154.78;4990498;28;20295;-63
2021/08/04 08:05:08;;;;;;;2.00;1.90;;;;;;;20.09;68.53;96156.59;4989739;28;20209;-61
2021/08/04 08:07:33;;;;;;;1.93;1.83;;;;;;;20.10;70.37;96161.63;4990695;28;20188;-60
2021/08/04 08:09:59;;;;;;;2.13;1.93;;;;;;;20.21;71.13;96152.44;4990336;28;20416;-61
2021/08/04 08:12:24;;;;;;;3.70;2.60;;;;;;;20.34;72.17;96157.03;4982218;28;20637;-69
2021/08/04 08:14:50;;;;;;;2.33;2.13;;;;;;;20.37;72.56;96153.75;4970759;28;20200;-58
2021/08/04 08:17:16;;;;;;;2.50;2.30;;;;;;;20.24;72.08;96151.03;4976731;28;20174;-66
2021/08/04 08:19:41;;;;;;;2.33;2.13;;;;;;;20.23;71.97;96160.94;4990681;28;20197;-59
2021/08/04 08:22:07;;;;;;;2.57;2.37;;;;;;;20.25;72.39;96169.44;4990438;28;20197;-59
2021/08/04 08:24:33;;;;;;;2.50;2.30;;;;;;;20.22;72.48;96167.34;4990145;28;20201;-65
2021/08/04 08:26:58;;;;;;;3.00;2.80;;;;;;;20.19;71.41;96156.44;4984445;28;20178;-62
2021/08/04 08:29:23;;;;;;;3.30;2.57;;;;;;;20.28;69.60;96158.19;4970499;28;20244;-59
2021/08/04 08:31:49;;;;;;;4.10;2.07;;;;;;;20.24;69.62;96164.38;4975911;28;20178;-66
2021/08/04 08:34:14;;;;;;;2.60;2.40;;;;;;;20.21;71.68;96170.31;4990164;28;20189;-66
2021/08/04 08:36:40;;;;;;;2.40;2.20;;;;;;;20.27;73.35;96169.16;4990517;28;20176;-61
2021/08/04 08:39:07;;;;;;;2.70;2.20;;;;;;;20.38;73.36;96178.59;4990406;28;20204;-64
2021/08/04 08:41:33;;;;;;;2.17;1.97;;;;;;;20.44;70.04;96172.06;4984972;28;20298;-67
2021/08/04 08:43:59;;;;;;;5.60;2.67;;;;;;;20.47;70.09;96168.81;4975320;28;21015;-66
2021/08/04 08:46:32;;;;;;;3.27;2.50;;;;;;;20.46;69.15;96170.69;4993593;28;20544;-58
2021/08/04 08:48:58;;;;;;;2.17;1.93;;;;;;;20.48;69.06;96165.84;4993779;28;20177;-66
2021/08/04 08:51:25;;;;;;;2.23;2.03;;;;;;;20.66;70.76;96176.75;4993902;28;20417;-70
2021/08/04 08:53:51;;;;;;;2.57;1.90;;;;;;;20.78;71.08;96167.19;4993380;28;20949;-60
2021/08/04 08:56:18;;;;;;;2.50;2.30;;;;;;;20.75;71.48;96161.63;4989252;28;20489;-70
2021/08/04 08:58:48;;;;;;;2.23;2.03;;;;;;;20.84;71.05;96167.88;4974183;28;20504;-65
2021/08/04 09:01:14;;;;;;;1.97;1.87;;;;;;;20.92;69.87;96146.66;4989311;28;20452;-59
2021/08/04 09:03:40;;;;;;;2.10;2.00;;;;;;;21.05;68.86;96150.44;4993154;28;20841;-63
2021/08/04 09:06:06;;;;;;;2.60;2.40;;;;;;;20.97;69.91;96138.53;4993816;28;20216;-68
2021/08/04 09:08:34;;;;;;;3.00;1.80;;;;;;;20.93;71.37;96142.88;4993630;28;20181;-68
2021/08/04 09:11:18;;;;;;;2.50;2.30;;;;;;;20.86;72.21;96142.47;4992995;28;20273;-64
2021/08/04 09:13:46;;;;;;;3.20;1.90;;;;;;;21.00;70.10;96129.94;4991942;28;20428;-59
2021/08/04 09:16:17;;;;;;;2.80;2.60;;;;;;;21.28;67.69;96128.84;4993166;28;20436;-62
2021/08/04 09:18:51;;;;;;;2.37;2.17;;;;;;;21.31;68.42;96128.25;4993665;28;20841;-61
2021/08/04 09:21:17;;;;;;;2.57;2.37;;;;;;;21.32;67.94;96123.69;4992264;28;20570;-61
2021/08/04 09:23:51;;;;;;;2.70;2.20;;;;;;;21.49;66.67;96113.97;4995391;28;20463;-61
2021/08/04 09:26:21;;;;;;;2.37;2.17;;;;;;;21.35;65.23;96123.09;4996349;28;20888;-62
2021/08/04 09:29:03;;;;;;;2.50;2.30;;;;;;;21.23;67.73;96114.81;4995823;28;20420;-58
2021/08/04 09:31:41;;;;;;;2.30;2.17;;;;;;;21.19;64.04;96117.28;4997158;28;20401;-63
2021/08/04 09:34:33;;;;;;;2.50;2.07;;;;;;;21.15;63.60;96123.50;4992975;28;20928;-64
2021/08/04 09:37:12;;;;;;;2.30;2.10;;;;;;;21.11;65.50;96117.16;4989735;28;20416;-61
2021/08/04 09:39:39;;;;;;;2.70;2.07;;;;;;;21.09;65.54;96116.66;4996893;28;20945;-64
2021/08/04 09:42:05;;;;;;;2.20;1.97;;;;;;;21.12;64.18;96121.44;4996018;28;20536;-64
2021/08/04 09:44:31;;;;;;;2.07;1.90;;;;;;;21.10;64.69;96120.94;4996020;28;20432;-65
2021/08/04 09:47:07;;;;;;;2.07;1.87;;;;;;;21.08;66.27;96123.13;4995785;28;20435;-65
2021/08/04 09:49:33;;;;;;;2.30;2.20;;;;;;;21.12;67.39;96114.22;4995887;28;20189;-66
2021/08/04 09:52:10;;;;;;;2.10;1.90;;;;;;;21.15;66.98;96118.97;4995872;28;20423;-67
2021/08/04 09:54:40;;;;;;;1.90;1.80;;;;;;;20.99;67.91;96116.84;4995658;28;20201;-66
2021/08/04 09:57:05;;;;;;;1.93;1.73;;;;;;;21.02;68.20;96109.06;4996464;28;20409;-67
2021/08/04 09:59:31;;;;;;;2.47;2.00;;;;;;;20.98;68.49;96113.38;4993899;28;20471;-65
2021/08/04 10:01:58;;;;;;;2.20;2.00;;;;;;;21.17;68.23;96114.09;4997798;28;20189;-68
2021/08/04 10:04:24;;;;;;;2.43;2.30;;;;;;;21.27;68.97;96118.47;4995400;28;20582;-68
2021/08/04 10:06:53;;;;;;;2.37;1.90;;;;;;;21.14;67.44;96111.25;4991076;28;20950;-68
2021/08/04 10:09:19;;;;;;;2.80;2.43;;;;;;;21.16;68.11;96115.19;4980672;28;20192;-59
2021/08/04 10:11:49;;;;;;;2.40;2.10;;;;;;;21.17;67.37;96108.75;4995519;28;20907;-62
2021/08/04 10:14:18;;;;;;;2.53;1.87;;;;;;;21.24;68.82;96109.16;4995562;28;20243;-65
2021/08/04 10:16:45;;;;;;;2.63;2.43;;;;;;;21.34;68.30;96108.16;4995999;28;20492;-62
2021/08/04 10:19:11;;;;;;;1.80;1.70;;;;;;;21.19;67.79;96109.25;4996029;28;20888;-65
2021/08/04 10:21:40;;;;;;;3.20;2.07;;;;;;;21.27;66.92;96099.75;4990811;28;20418;-60
2021/08/04 10:24:06;;;;;;;3.03;1.80;;;;;;;21.35;66.64;96096.34;4975862;28;20552;-66
2021/08/04 10:26:36;;;;;;;4.13;1.97;;;;;;;21.47;67.22;96092.06;4994452;28;20507;-70
2021/08/04 10:29:04;;;;;;;2.67;2.23;;;;;;;21.44;67.39;96090.00;4995745;28;20416;-70
2021/08/04 10:31:30;;;;;;;2.43;2.10;;;;;;;21.48;66.97;96090.19;4995754;28;20439;-64
2021/08/04 10:33:58;;;;;;;3.00;1.90;;;;;;;21.51;68.64;96084.25;4994289;28;20559;-61
2021/08/04 10:36:31;;;;;;;2.10;1.90;;;;;;;21.52;67.94;96083.16;4989307;28;20421;-70
2021/08/04 10:38:59;;;;;;;2.70;2.03;;;;;;;21.55;67.31;96084.41;4992946;28;20424;-64
2021/08/04 10:41:27;;;;;;;2.30;2.10;;;;;;;21.55;67.26;96085.22;4993508;28;20417;-60
2021/08/04 10:44:01;;;;;;;2.80;2.00;;;;;;;21.61;64.16;96080.56;4995074;28;20614;-65
2021/08/04 10:46:29;;;;;;;2.80;2.30;;;;;;;21.62;63.80;96084.78;4995341;28;20434;-65
2021/08/04 10:49:04;;;;;;;3.57;2.90;;;;;;;21.68;64.77;96083.59;4995073;28;20511;-60
2021/08/04 10:51:35;;;;;;;2.43;2.23;;;;;;;21.65;67.09;96082.31;4995548;28;20466;-60
2021/08/04 10:54:00;;;;;;;2.50;2.20;;;;;;;21.79;68.22;96077.75;4994826;28;20503;-60
2021/08/04 10:56:32;;;;;;;5.10;2.80;;;;;;;21.82;68.34;96071.78;4980317;28;20425;-60
2021/08/04 10:59:09;;;;;;;3.10;2.57;;;;;;;21.80;67.34;96067.81;4975942;28;20225;-60
2021/08/04 11:01:35;;;;;;;2.93;2.20;;;;;;;21.81;67.92;96072.09;4985050;28;20432;-65
2021/08/04 11:04:00;;;;;;;2.13;2.03;;;;;;;21.92;67.09;96068.84;4989848;28;20476;-65
2021/08/04 11:06:26;;;;;;;2.40;2.20;;;;;;;21.93;64.44;96067.78;4991474;28;20177;-61
2021/08/04 11:09:19;;;;;;;2.50;2.30;;;;;;;21.91;64.22;96077.19;4991281;28;20275;-64
2021/08/04 11:11:51;;;;;;;2.27;2.10;;;;;;;21.96;65.24;96077.88;4974856;28;20181;-62
2021/08/04 11:14:36;;;;;;;2.60;2.20;;;;;;;21.99;64.61;96061.22;4984267;28;20459;-61
2021/08/04 11:17:03;;;;;;;2.60;2.40;;;;;;;22.06;63.67;96072.28;4971799;28;20434;-64
2021/08/04 11:19:34;;;;;;;2.50;2.30;;;;;;;22.06;64.21;96063.44;4971999;28;20872;-64
2021/08/04 11:22:18;;;;;;;2.70;2.50;;;;;;;22.15;59.68;96061.63;4988001;28;20444;-60
2021/08/04 11:24:55;;;;;;;2.50;2.30;;;;;;;22.22;62.54;96062.78;4988963;28;20437;-64
2021/08/04 11:27:25;;;;;;;2.40;2.30;;;;;;;22.18;64.03;96059.13;4975269;28;20421;-60
2021/08/04 11:29:53;;;;;;;2.80;2.53;;;;;;;22.35;63.22;96053.88;4987704;28;20420;-59
2021/08/04 11:32:20;;;;;;;2.50;2.30;;;;;;;22.42;62.83;96056.91;4994650;28;20400;-64
2021/08/04 11:34:46;;;;;;;1.93;1.83;;;;;;;22.52;63.99;96061.19;4994154;28;20429;-64